Holly Ridge, Mississippi
Current Conditions -  °F | °C
As of 4:53 AM on Sunday 26 Oct 2014 (Local Time) from KGLH Reporting Station
Haze Haze  
Wind Chill: 58°   Ceiling: Unl
Heat Index: 58°   Visibility: 4mi
Dew Point: 57°   Wind: 5mph
Humidity: 97%   Direction: 180°S
Pressure: 30.02"   Gusts: NA
Location:  33.45°N, 90.75°W
Report Text: KGLH 260953Z AUTO 18004KT 4SM BR CLR 14/14 A3002 RMK AO2 SLP170 T01440139
Loading
Personal Weather Stations






























Interactive Weather Map
Tropical Storm Tracking
New forecast layout! Learn more

10-Day Weather Forecast

Advertisements
Track Severe Weather on mobile